Terminal Aerodrome Forecast
Issued by NWS

Home | Current Version | Previous Version | Text Only | Print | Product List | Glossary On
Versions: 1 2 3 4 5 6 7 8 9 10 11 12 13 14 15
000
FTUS45 KABQ 221239 AAA
TAFROW
TAF AMD
KROW 221239Z 2213/2312 17008KT P6SM OVC015
      TEMPO 2213/2215 4SM BR OVC009
     FM221700 08005KT P6SM SCT100
     FM230000 13010KT P6SM VCSH SCT060 BKN100=

USA.gov is the U.S. government's official web portal to all federal, state and local government web resources and services.